sensor_id;sensor_type;location;lat;lon;timestamp;pressure;altitude;pressure_sealevel;temperature;humidity
70589;BME280;58152;49.202;18.744;2022-11-23T00:01:25;96162.94;;;2.80;76.24
70589;BME280;58152;49.202;18.744;2022-11-23T00:03:52;96168.88;;;2.82;76.37
70589;BME280;58152;49.202;18.744;2022-11-23T00:06:19;96162.97;;;2.78;76.38
70589;BME280;58152;49.202;18.744;2022-11-23T00:08:46;96170.72;;;2.78;76.52
70589;BME280;58152;49.202;18.744;2022-11-23T00:11:12;96163.03;;;2.77;76.41
70589;BME280;58152;49.202;18.744;2022-11-23T00:13:38;96163.09;;;2.75;76.49
70589;BME280;58152;49.202;18.744;2022-11-23T00:16:12;96161.34;;;2.76;76.26
70589;BME280;58152;49.202;18.744;2022-11-23T00:18:38;96174.06;;;2.82;76.41
70589;BME280;58152;49.202;18.744;2022-11-23T00:21:12;96152.66;;;2.77;76.22
70589;BME280;58152;49.202;18.744;2022-11-23T00:23:39;96156.00;;;2.80;76.30
70589;BME280;58152;49.202;18.744;2022-11-23T00:26:04;96156.00;;;2.80;76.42
70589;BME280;58152;49.202;18.744;2022-11-23T00:28:30;96148.25;;;2.79;76.20
70589;BME280;58152;49.202;18.744;2022-11-23T00:30:59;96161.97;;;2.83;76.24
70589;BME280;58152;49.202;18.744;2022-11-23T00:33:24;96153.59;;;2.74;76.04
70589;BME280;58152;49.202;18.744;2022-11-23T00:36:09;96162.13;;;2.78;76.31
70589;BME280;58152;49.202;18.744;2022-11-23T00:38:36;96145.81;;;2.74;76.00
70589;BME280;58152;49.202;18.744;2022-11-23T00:41:15;96159.66;;;2.75;76.12
70589;BME280;58152;49.202;18.744;2022-11-23T00:43:41;96152.88;;;2.71;76.37
70589;BME280;58152;49.202;18.744;2022-11-23T00:46:16;96140.78;;;2.71;75.98
70589;BME280;58152;49.202;18.744;2022-11-23T00:48:43;96140.03;;;2.68;75.76
70589;BME280;58152;49.202;18.744;2022-11-23T00:51:12;96136.66;;;2.66;75.94
70589;BME280;58152;49.202;18.744;2022-11-23T00:53:38;96132.34;;;2.65;76.06
70589;BME280;58152;49.202;18.744;2022-11-23T00:56:04;96129.75;;;2.65;76.26
70589;BME280;58152;49.202;18.744;2022-11-23T00:58:30;96121.94;;;2.66;76.14
70589;BME280;58152;49.202;18.744;2022-11-23T01:01:06;96121.13;;;2.64;76.40
70589;BME280;58152;49.202;18.744;2022-11-23T01:03:32;96129.66;;;2.68;76.20
70589;BME280;58152;49.202;18.744;2022-11-23T01:06:05;96132.31;;;2.66;76.49
70589;BME280;58152;49.202;18.744;2022-11-23T01:08:31;96130.56;;;2.67;76.44
70589;BME280;58152;49.202;18.744;2022-11-23T01:11:02;96130.66;;;2.64;76.10
70589;BME280;58152;49.202;18.744;2022-11-23T01:13:28;96129.88;;;2.62;76.37
70589;BME280;58152;49.202;18.744;2022-11-23T01:15:54;96117.03;;;2.59;76.22
70589;BME280;58152;49.202;18.744;2022-11-23T01:18:20;96128.06;;;2.64;76.12
70589;BME280;58152;49.202;18.744;2022-11-23T01:20:45;96114.38;;;2.60;76.29
70589;BME280;58152;49.202;18.744;2022-11-23T01:23:11;96107.50;;;2.59;76.23
70589;BME280;58152;49.202;18.744;2022-11-23T01:25:36;96112.59;;;2.62;76.08
70589;BME280;58152;49.202;18.744;2022-11-23T01:28:02;96113.50;;;2.61;76.52
70589;BME280;58152;49.202;18.744;2022-11-23T01:30:27;96104.84;;;2.61;76.42
70589;BME280;58152;49.202;18.744;2022-11-23T01:32:53;96102.25;;;2.61;76.11
70589;BME280;58152;49.202;18.744;2022-11-23T01:35:18;96098.81;;;2.62;76.20
70589;BME280;58152;49.202;18.744;2022-11-23T01:37:44;96093.63;;;2.62;76.21
70589;BME280;58152;49.202;18.744;2022-11-23T01:40:10;96101.38;;;2.62;76.06
70589;BME280;58152;49.202;18.744;2022-11-23T01:42:45;96093.78;;;2.57;76.28
70589;BME280;58152;49.202;18.744;2022-11-23T01:47:56;96088.59;;;2.57;76.03
70589;BME280;58152;49.202;18.744;2022-11-23T01:50:30;96085.13;;;2.57;76.22
70589;BME280;58152;49.202;18.744;2022-11-23T01:52:58;96098.88;;;2.59;76.02
70589;BME280;58152;49.202;18.744;2022-11-23T01:55:24;96094.72;;;2.54;75.93
70589;BME280;58152;49.202;18.744;2022-11-23T01:57:51;96101.56;;;2.55;76.26
70589;BME280;58152;49.202;18.744;2022-11-23T02:00:17;96105.06;;;2.54;76.07
70589;BME280;58152;49.202;18.744;2022-11-23T02:03:03;96110.16;;;2.58;76.14
70589;BME280;58152;49.202;18.744;2022-11-23T02:05:32;96112.75;;;2.58;76.15
70589;BME280;58152;49.202;18.744;2022-11-23T02:08:01;96094.94;;;2.48;75.82
70589;BME280;58152;49.202;18.744;2022-11-23T02:10:29;96099.03;;;2.54;75.77
70589;BME280;58152;49.202;18.744;2022-11-23T02:12:55;96094.88;;;2.50;75.83
70589;BME280;58152;49.202;18.744;2022-11-23T02:15:25;96107.66;;;2.54;75.97
70589;BME280;58152;49.202;18.744;2022-11-23T02:17:51;96100.78;;;2.53;75.88
70589;BME280;58152;49.202;18.744;2022-11-23T02:20:17;96104.16;;;2.55;75.94
70589;BME280;58152;49.202;18.744;2022-11-23T02:22:56;96101.41;;;2.60;76.11
70589;BME280;58152;49.202;18.744;2022-11-23T02:28:17;96093.66;;;2.60;75.94
70589;BME280;58152;49.202;18.744;2022-11-23T02:30:48;96093.81;;;2.55;76.20
70589;BME280;58152;49.202;18.744;2022-11-23T02:33:15;96080.09;;;2.52;76.00
70589;BME280;58152;49.202;18.744;2022-11-23T02:35:53;96086.19;;;2.51;76.06
70589;BME280;58152;49.202;18.744;2022-11-23T02:38:20;96089.69;;;2.50;76.38
70589;BME280;58152;49.202;18.744;2022-11-23T02:40:47;96092.19;;;2.53;76.20
70589;BME280;58152;49.202;18.744;2022-11-23T02:43:13;96100.78;;;2.53;76.24
70589;BME280;58152;49.202;18.744;2022-11-23T02:48:20;96094.88;;;2.50;76.18
70589;BME280;58152;49.202;18.744;2022-11-23T02:50:45;96094.81;;;2.51;76.01
70589;BME280;58152;49.202;18.744;2022-11-23T02:53:11;96090.59;;;2.49;76.19
70589;BME280;58152;49.202;18.744;2022-11-23T02:55:37;96109.34;;;2.55;76.59
70589;BME280;58152;49.202;18.744;2022-11-23T02:58:04;96101.84;;;2.48;76.12
70589;BME280;58152;49.202;18.744;2022-11-23T03:00:30;96094.03;;;2.49;76.18
70589;BME280;58152;49.202;18.744;2022-11-23T03:02:58;96093.81;;;2.55;76.50
70589;BME280;58152;49.202;18.744;2022-11-23T03:05:25;96098.13;;;2.55;76.45
70589;BME280;58152;49.202;18.744;2022-11-23T03:07:50;96086.09;;;2.54;76.28
70589;BME280;58152;49.202;18.744;2022-11-23T03:10:16;96077.50;;;2.53;76.61
70589;BME280;58152;49.202;18.744;2022-11-23T03:12:42;96077.44;;;2.55;76.56
70589;BME280;58152;49.202;18.744;2022-11-23T03:15:08;96065.38;;;2.54;76.67
70589;BME280;58152;49.202;18.744;2022-11-23T03:17:34;96064.53;;;2.53;76.45
70589;BME280;58152;49.202;18.744;2022-11-23T03:19:59;96055.09;;;2.52;76.64
70589;BME280;58152;49.202;18.744;2022-11-23T03:22:25;96078.19;;;2.59;76.52
70589;BME280;58152;49.202;18.744;2022-11-23T03:24:51;96065.38;;;2.54;76.40
70589;BME280;58152;49.202;18.744;2022-11-23T03:27:16;96067.88;;;2.57;76.40
70589;BME280;58152;49.202;18.744;2022-11-23T03:29:42;96068.72;;;2.58;76.63
70589;BME280;58152;49.202;18.744;2022-11-23T03:32:07;96057.63;;;2.54;76.48
70589;BME280;58152;49.202;18.744;2022-11-23T03:34:33;96065.16;;;2.60;76.58
70589;BME280;58152;49.202;18.744;2022-11-23T03:36:59;96067.91;;;2.55;76.97
70589;BME280;58152;49.202;18.744;2022-11-23T03:39:24;96062.72;;;2.55;76.53
70589;BME280;58152;49.202;18.744;2022-11-23T03:41:50;96063.53;;;2.58;76.35
70589;BME280;58152;49.202;18.744;2022-11-23T03:44:15;96074.75;;;2.58;76.68
70589;BME280;58152;49.202;18.744;2022-11-23T03:46:41;96075.59;;;2.59;76.36
70589;BME280;58152;49.202;18.744;2022-11-23T03:49:06;96073.94;;;2.56;76.64
70589;BME280;58152;49.202;18.744;2022-11-23T03:51:31;96068.91;;;2.51;76.56
70589;BME280;58152;49.202;18.744;2022-11-23T03:53:57;96070.50;;;2.55;76.69
70589;BME280;58152;49.202;18.744;2022-11-23T03:56:22;96053.38;;;2.51;76.73
70589;BME280;58152;49.202;18.744;2022-11-23T03:58:48;96061.72;;;2.60;76.47
70589;BME280;58152;49.202;18.744;2022-11-23T04:01:14;96059.25;;;2.57;76.55
70589;BME280;58152;49.202;18.744;2022-11-23T04:03:39;96057.53;;;2.57;76.76
70589;BME280;58152;49.202;18.744;2022-11-23T04:06:05;96060.06;;;2.59;76.32
70589;BME280;58152;49.202;18.744;2022-11-23T04:08:30;96056.66;;;2.57;76.56
70589;BME280;58152;49.202;18.744;2022-11-23T04:10:57;96064.41;;;2.57;76.45
70589;BME280;58152;49.202;18.744;2022-11-23T04:13:22;96056.66;;;2.57;76.62
70589;BME280;58152;49.202;18.744;2022-11-23T04:15:48;96045.50;;;2.54;76.79
70589;BME280;58152;49.202;18.744;2022-11-23T04:18:14;96036.84;;;2.55;76.91
70589;BME280;58152;49.202;18.744;2022-11-23T04:20:39;96042.84;;;2.56;76.70
70589;BME280;58152;49.202;18.744;2022-11-23T04:23:05;96033.47;;;2.53;76.58
70589;BME280;58152;49.202;18.744;2022-11-23T04:25:30;96031.72;;;2.54;76.78
70589;BME280;58152;49.202;18.744;2022-11-23T04:27:56;96027.44;;;2.53;76.38
70589;BME280;58152;49.202;18.744;2022-11-23T04:30:22;96041.28;;;2.52;77.13
70589;BME280;58152;49.202;18.744;2022-11-23T04:32:47;96053.28;;;2.54;76.64
70589;BME280;58152;49.202;18.744;2022-11-23T04:35:13;96056.81;;;2.52;77.01
70589;BME280;58152;49.202;18.744;2022-11-23T04:37:38;96058.47;;;2.54;76.85
70589;BME280;58152;49.202;18.744;2022-11-23T04:40:04;96056.03;;;2.50;76.78
70589;BME280;58152;49.202;18.744;2022-11-23T04:42:30;96063.03;;;2.48;77.04
70589;BME280;58152;49.202;18.744;2022-11-23T04:44:55;96064.69;;;2.49;76.92
70589;BME280;58152;49.202;18.744;2022-11-23T04:47:23;96067.22;;;2.50;76.74
70589;BME280;58152;49.202;18.744;2022-11-23T04:49:48;96071.63;;;2.48;77.07
70589;BME280;58152;49.202;18.744;2022-11-23T04:52:15;96081.06;;;2.49;77.06
70589;BME280;58152;49.202;18.744;2022-11-23T04:54:40;96087.03;;;2.51;77.10
70589;BME280;58152;49.202;18.744;2022-11-23T04:57:06;96077.50;;;2.53;77.05
70589;BME280;58152;49.202;18.744;2022-11-23T04:59:31;96072.34;;;2.52;77.14
70589;BME280;58152;49.202;18.744;2022-11-23T05:01:57;96063.03;;;2.48;76.86
70589;BME280;58152;49.202;18.744;2022-11-23T05:04:22;96067.28;;;2.49;77.05
70589;BME280;58152;49.202;18.744;2022-11-23T05:06:48;96070.78;;;2.48;76.97
70589;BME280;58152;49.202;18.744;2022-11-23T05:09:13;96074.06;;;2.53;76.95
70589;BME280;58152;49.202;18.744;2022-11-23T05:11:39;96077.50;;;2.53;77.01
70589;BME280;58152;49.202;18.744;2022-11-23T05:14:05;96066.28;;;2.53;77.31
70589;BME280;58152;49.202;18.744;2022-11-23T05:16:30;96060.44;;;2.48;76.87
70589;BME280;58152;49.202;18.744;2022-11-23T05:18:56;96063.03;;;2.46;77.44
70589;BME280;58152;49.202;18.744;2022-11-23T05:21:21;96067.28;;;2.49;77.23
70589;BME280;58152;49.202;18.744;2022-11-23T05:23:47;96072.41;;;2.50;77.08
70589;BME280;58152;49.202;18.744;2022-11-23T05:26:12;96069.91;;;2.47;77.30
70589;BME280;58152;49.202;18.744;2022-11-23T05:28:38;96064.00;;;2.44;77.27
70589;BME280;58152;49.202;18.744;2022-11-23T05:31:04;96060.59;;;2.43;77.43
70589;BME280;58152;49.202;18.744;2022-11-23T05:33:29;96063.94;;;2.45;77.26
70589;BME280;58152;49.202;18.744;2022-11-23T05:35:55;96060.63;;;2.42;77.23
70589;BME280;58152;49.202;18.744;2022-11-23T05:38:20;96063.16;;;2.43;77.20
70589;BME280;58152;49.202;18.744;2022-11-23T05:40:46;96065.78;;;2.42;77.54
70589;BME280;58152;49.202;18.744;2022-11-23T05:43:12;96068.28;;;2.45;77.29
70589;BME280;58152;49.202;18.744;2022-11-23T05:45:37;96070.88;;;2.45;77.20
70589;BME280;58152;49.202;18.744;2022-11-23T05:48:03;96058.03;;;2.42;77.43
70589;BME280;58152;49.202;18.744;2022-11-23T05:50:29;96051.22;;;2.39;77.36
70589;BME280;58152;49.202;18.744;2022-11-23T05:52:56;96056.25;;;2.44;77.23
70589;BME280;58152;49.202;18.744;2022-11-23T05:55:22;96052.75;;;2.45;77.34
70589;BME280;58152;49.202;18.744;2022-11-23T05:57:47;96043.25;;;2.45;77.55
70589;BME280;58152;49.202;18.744;2022-11-23T06:00:13;96057.09;;;2.44;77.60
70589;BME280;58152;49.202;18.744;2022-11-23T06:02:40;96056.34;;;2.41;77.63
70589;BME280;58152;49.202;18.744;2022-11-23T06:05:06;96062.28;;;2.43;77.41
70589;BME280;58152;49.202;18.744;2022-11-23T06:07:32;96059.94;;;2.37;77.45
70589;BME280;58152;49.202;18.744;2022-11-23T06:09:58;96070.06;;;2.43;77.39
70589;BME280;58152;49.202;18.744;2022-11-23T06:12:23;96072.88;;;2.37;77.22
70589;BME280;58152;49.202;18.744;2022-11-23T06:14:49;96074.53;;;2.39;77.40
70589;BME280;58152;49.202;18.744;2022-11-23T06:17:18;96077.06;;;2.41;77.60
70589;BME280;58152;49.202;18.744;2022-11-23T06:19:43;96078.72;;;2.42;77.69
70589;BME280;58152;49.202;18.744;2022-11-23T06:22:09;96071.88;;;2.41;77.62
70589;BME280;58152;49.202;18.744;2022-11-23T06:24:34;96077.88;;;2.41;77.22
70589;BME280;58152;49.202;18.744;2022-11-23T06:27:00;96090.75;;;2.44;77.68
70589;BME280;58152;49.202;18.744;2022-11-23T06:29:25;96085.50;;;2.46;77.67
70589;BME280;58152;49.202;18.744;2022-11-23T06:31:51;96082.84;;;2.47;77.69
70589;BME280;58152;49.202;18.744;2022-11-23T06:34:16;96074.41;;;2.42;77.69
70589;BME280;58152;49.202;18.744;2022-11-23T06:36:42;96081.97;;;2.48;77.43
70589;BME280;58152;49.202;18.744;2022-11-23T06:39:08;96069.22;;;2.42;77.52
70589;BME280;58152;49.202;18.744;2022-11-23T06:41:34;96074.22;;;2.48;77.54
70589;BME280;58152;49.202;18.744;2022-11-23T06:43:59;96070.72;;;2.49;77.54
70589;BME280;58152;49.202;18.744;2022-11-23T06:46:25;96074.22;;;2.48;77.50
70589;BME280;58152;49.202;18.744;2022-11-23T06:48:50;96075.97;;;2.48;77.44
70589;BME280;58152;49.202;18.744;2022-11-23T06:51:16;96073.38;;;2.48;77.53
70589;BME280;58152;49.202;18.744;2022-11-23T06:53:41;96088.78;;;2.51;77.65
70589;BME280;58152;49.202;18.744;2022-11-23T06:56:07;96092.28;;;2.50;77.85
70589;BME280;58152;49.202;18.744;2022-11-23T06:58:33;96090.47;;;2.52;77.87
70589;BME280;58152;49.202;18.744;2022-11-23T07:01:00;96074.16;;;2.50;77.52
70589;BME280;58152;49.202;18.744;2022-11-23T07:03:27;96072.31;;;2.53;77.84
70589;BME280;58152;49.202;18.744;2022-11-23T07:05:52;96076.66;;;2.53;77.33
70589;BME280;58152;49.202;18.744;2022-11-23T07:08:18;96075.81;;;2.52;77.65
70589;BME280;58152;49.202;18.744;2022-11-23T07:10:43;96076.59;;;2.54;77.23
70589;BME280;58152;49.202;18.744;2022-11-23T07:13:10;96080.91;;;2.54;77.99
70589;BME280;58152;49.202;18.744;2022-11-23T07:15:36;96093.88;;;2.54;77.53
70589;BME280;58152;49.202;18.744;2022-11-23T07:18:03;96086.09;;;2.54;77.52
70589;BME280;58152;49.202;18.744;2022-11-23T07:20:29;96090.44;;;2.53;77.49
70589;BME280;58152;49.202;18.744;2022-11-23T07:23:01;96091.91;;;2.61;77.49
70589;BME280;58152;49.202;18.744;2022-11-23T07:25:28;96090.22;;;2.60;77.41
70589;BME280;58152;49.202;18.744;2022-11-23T07:27:58;96083.25;;;2.62;77.46
70589;BME280;58152;49.202;18.744;2022-11-23T07:30:25;96092.72;;;2.63;77.60
70589;BME280;58152;49.202;18.744;2022-11-23T07:33:01;96100.25;;;2.69;77.44
70589;BME280;58152;49.202;18.744;2022-11-23T07:35:27;96090.75;;;2.69;77.82
70589;BME280;58152;49.202;18.744;2022-11-23T07:37:53;96088.91;;;2.73;78.19
70589;BME280;58152;49.202;18.744;2022-11-23T07:40:18;96086.81;;;2.84;78.00
70589;BME280;58152;49.202;18.744;2022-11-23T07:42:44;96082.47;;;2.85;77.42
70589;BME280;58152;49.202;18.744;2022-11-23T07:45:10;96092.69;;;2.88;77.14
70589;BME280;58152;49.202;18.744;2022-11-23T07:47:36;96099.63;;;2.87;77.09
70589;BME280;58152;49.202;18.744;2022-11-23T07:50:03;96088.75;;;2.77;77.11
70589;BME280;58152;49.202;18.744;2022-11-23T07:52:28;96095.69;;;2.77;77.24
70589;BME280;58152;49.202;18.744;2022-11-23T07:54:54;96086.31;;;2.73;77.20
70589;BME280;58152;49.202;18.744;2022-11-23T07:57:19;96096.50;;;2.77;77.29
70589;BME280;58152;49.202;18.744;2022-11-23T07:59:45;96088.97;;;2.71;77.56
70589;BME280;58152;49.202;18.744;2022-11-23T08:02:13;96096.41;;;2.80;77.16
70589;BME280;58152;49.202;18.744;2022-11-23T08:04:39;96094.72;;;2.79;77.08
70589;BME280;58152;49.202;18.744;2022-11-23T08:07:05;96092.19;;;2.78;77.31
70589;BME280;58152;49.202;18.744;2022-11-23T08:09:30;96102.50;;;2.79;77.55
70589;BME280;58152;49.202;18.744;2022-11-23T08:11:56;96097.31;;;2.79;77.53
70589;BME280;58152;49.202;18.744;2022-11-23T08:14:21;96100.63;;;2.83;77.83
70589;BME280;58152;49.202;18.744;2022-11-23T08:16:50;96103.97;;;2.87;77.63
70589;BME280;58152;49.202;18.744;2022-11-23T08:19:16;96089.41;;;2.84;77.66
70589;BME280;58152;49.202;18.744;2022-11-23T08:21:42;96084.25;;;2.83;77.50
70589;BME280;58152;49.202;18.744;2022-11-23T08:24:07;96094.34;;;2.90;77.66
70589;BME280;58152;49.202;18.744;2022-11-23T08:26:33;96089.28;;;2.87;77.63
70589;BME280;58152;49.202;18.744;2022-11-23T08:29:02;96091.75;;;2.90;77.49
70589;BME280;58152;49.202;18.744;2022-11-23T08:31:31;96097.69;;;2.94;77.72
70589;BME280;58152;49.202;18.744;2022-11-23T08:34:01;96082.34;;;2.88;77.38
70589;BME280;58152;49.202;18.744;2022-11-23T08:36:26;96077.97;;;2.90;77.84
70589;BME280;58152;49.202;18.744;2022-11-23T08:38:52;96075.31;;;2.91;77.65
70589;BME280;58152;49.202;18.744;2022-11-23T08:41:18;96083.09;;;2.91;77.61
70589;BME280;58152;49.202;18.744;2022-11-23T08:43:49;96074.31;;;2.95;77.66
70589;BME280;58152;49.202;18.744;2022-11-23T08:46:15;96084.56;;;2.98;77.30
70589;BME280;58152;49.202;18.744;2022-11-23T08:48:50;96073.41;;;2.96;77.12
70589;BME280;58152;49.202;18.744;2022-11-23T08:51:20;96072.50;;;2.97;77.61
70589;BME280;58152;49.202;18.744;2022-11-23T08:53:49;96064.78;;;2.96;77.50
70589;BME280;58152;49.202;18.744;2022-11-23T08:56:20;96065.53;;;2.99;77.06
70589;BME280;58152;49.202;18.744;2022-11-23T08:59:13;96059.59;;;2.96;77.18
70589;BME280;58152;49.202;18.744;2022-11-23T09:01:49;96060.34;;;2.99;76.88
70589;BME280;58152;49.202;18.744;2022-11-23T09:07:02;96069.72;;;3.02;76.64
70589;BME280;58152;49.202;18.744;2022-11-23T09:09:28;96074.81;;;3.05;76.58
70589;BME280;58152;49.202;18.744;2022-11-23T09:11:53;96075.66;;;3.05;76.71
70589;BME280;58152;49.202;18.744;2022-11-23T09:14:19;96094.44;;;3.12;76.72
70589;BME280;58152;49.202;18.744;2022-11-23T09:16:48;96082.44;;;3.10;76.54
70589;BME280;58152;49.202;18.744;2022-11-23T09:19:13;96081.25;;;3.18;76.62
70589;BME280;58152;49.202;18.744;2022-11-23T09:21:39;96072.69;;;3.16;76.25
70589;BME280;58152;49.202;18.744;2022-11-23T09:24:09;96071.78;;;3.17;76.39
70589;BME280;58152;49.202;18.744;2022-11-23T09:26:40;96071.63;;;3.22;75.90
70589;BME280;58152;49.202;18.744;2022-11-23T09:29:07;96093.03;;;3.27;75.98
70589;BME280;58152;49.202;18.744;2022-11-23T09:31:35;96080.97;;;3.26;75.52
70589;BME280;58152;49.202;18.744;2022-11-23T09:34:01;96071.47;;;3.26;75.84
70589;BME280;58152;49.202;18.744;2022-11-23T09:36:29;96066.28;;;3.26;75.56
70589;BME280;58152;49.202;18.744;2022-11-23T09:38:55;96064.63;;;3.24;75.50
70589;BME280;58152;49.202;18.744;2022-11-23T09:44:04;96070.31;;;3.34;74.93
70589;BME280;58152;49.202;18.744;2022-11-23T09:52:21;96055.56;;;3.36;74.76
70589;BME280;58152;49.202;18.744;2022-11-23T09:54:52;96049.34;;;3.40;75.11
70589;BME280;58152;49.202;18.744;2022-11-23T10:00:47;96042.59;;;3.36;75.36
70589;BME280;58152;49.202;18.744;2022-11-23T10:03:20;96050.25;;;3.39;75.33
70589;BME280;58152;49.202;18.744;2022-11-23T10:11:47;96050.59;;;3.53;75.24
70589;BME280;58152;49.202;18.744;2022-11-23T10:17:03;96033.38;;;3.50;75.58
70589;BME280;58152;49.202;18.744;2022-11-23T10:19:47;96036.63;;;3.55;75.78
70589;BME280;58152;49.202;18.744;2022-11-23T10:22:23;96029.66;;;3.58;75.85
70589;BME280;58152;49.202;18.744;2022-11-23T10:24:52;96022.72;;;3.58;75.46
70589;BME280;58152;49.202;18.744;2022-11-23T10:27:20;96026.16;;;3.59;75.77
70589;BME280;58152;49.202;18.744;2022-11-23T10:29:47;96021.88;;;3.58;75.25
70589;BME280;58152;49.202;18.744;2022-11-23T10:32:25;96020.91;;;3.60;75.65
70589;BME280;58152;49.202;18.744;2022-11-23T10:35:13;96017.28;;;3.64;75.54
70589;BME280;58152;49.202;18.744;2022-11-23T10:37:40;96011.25;;;3.64;75.57
70589;BME280;58152;49.202;18.744;2022-11-23T10:40:17;95999.91;;;3.66;75.34
70589;BME280;58152;49.202;18.744;2022-11-23T10:43:16;96011.06;;;3.68;75.31
70589;BME280;58152;49.202;18.744;2022-11-23T10:45:43;96014.41;;;3.72;75.01
70589;BME280;58152;49.202;18.744;2022-11-23T10:48:09;96017.75;;;3.74;74.95
70589;BME280;58152;49.202;18.744;2022-11-23T10:50:36;96013.50;;;3.73;74.95
70589;BME280;58152;49.202;18.744;2022-11-23T10:56:20;95997.84;;;3.74;74.62
70589;BME280;58152;49.202;18.744;2022-11-23T10:58:46;95999.50;;;3.77;74.82
70589;BME280;58152;49.202;18.744;2022-11-23T11:01:19;96000.16;;;3.82;74.75
70589;BME280;58152;49.202;18.744;2022-11-23T11:03:47;96005.16;;;3.87;74.71
70589;BME280;58152;49.202;18.744;2022-11-23T11:06:27;96005.94;;;3.89;74.52
70589;BME280;58152;49.202;18.744;2022-11-23T11:11:23;96006.72;;;3.91;74.11
70589;BME280;58152;49.202;18.744;2022-11-23T11:13:49;96006.53;;;3.95;74.37
70589;BME280;58152;49.202;18.744;2022-11-23T11:16:30;96002.31;;;3.93;74.34
70589;BME280;58152;49.202;18.744;2022-11-23T11:18:57;95998.75;;;3.95;74.11
70589;BME280;58152;49.202;18.744;2022-11-23T11:21:34;96000.13;;;4.04;73.93
70589;BME280;58152;49.202;18.744;2022-11-23T11:24:03;95990.63;;;4.03;73.95
70589;BME280;58152;49.202;18.744;2022-11-23T11:26:32;95991.25;;;4.10;74.27
70589;BME280;58152;49.202;18.744;2022-11-23T11:36:02;95999.88;;;4.30;73.69
70589;BME280;58152;49.202;18.744;2022-11-23T11:38:52;95999.88;;;4.30;73.63
70589;BME280;58152;49.202;18.744;2022-11-23T11:41:54;95993.72;;;4.33;72.76
70589;BME280;58152;49.202;18.744;2022-11-23T11:48:36;95992.69;;;4.37;72.50
70589;BME280;58152;49.202;18.744;2022-11-23T12:08:20;95980.06;;;4.48;72.80
70589;BME280;58152;49.202;18.744;2022-11-23T12:10:51;95984.22;;;4.52;73.27
70589;BME280;58152;49.202;18.744;2022-11-23T12:13:46;95979.09;;;4.51;73.47
70589;BME280;58152;49.202;18.744;2022-11-23T12:19:19;95982.63;;;4.50;73.56
70589;BME280;58152;49.202;18.744;2022-11-23T12:22:01;95993.69;;;4.53;73.45
70589;BME280;58152;49.202;18.744;2022-11-23T12:30:03;95985.97;;;4.52;73.22
70589;BME280;58152;49.202;18.744;2022-11-23T12:49:21;95979.47;;;4.62;73.11
70589;BME280;58152;49.202;18.744;2022-11-23T12:52:02;95988.97;;;4.63;73.48
70589;BME280;58152;49.202;18.744;2022-11-23T12:57:09;95988.19;;;4.61;73.32
70589;BME280;58152;49.202;18.744;2022-11-23T12:59:45;95998.38;;;4.66;73.64
70589;BME280;58152;49.202;18.744;2022-11-23T13:05:17;95998.38;;;4.66;73.30
70589;BME280;58152;49.202;18.744;2022-11-23T13:10:47;95984.75;;;4.61;73.04
70589;BME280;58152;49.202;18.744;2022-11-23T13:22:15;96005.13;;;4.70;72.71
70589;BME280;58152;49.202;18.744;2022-11-23T13:28:00;95988.06;;;4.64;73.12
70589;BME280;58152;49.202;18.744;2022-11-23T13:30:32;95999.03;;;4.71;72.85
70589;BME280;58152;49.202;18.744;2022-11-23T13:35:49;95995.66;;;4.69;72.77
70589;BME280;58152;49.202;18.744;2022-11-23T13:38:27;96002.41;;;4.73;72.55
70589;BME280;58152;49.202;18.744;2022-11-23T13:41:00;96001.63;;;4.71;72.61
70589;BME280;58152;49.202;18.744;2022-11-23T13:43:34;95999.94;;;4.70;72.30
70589;BME280;58152;49.202;18.744;2022-11-23T13:46:27;96013.44;;;4.78;72.04
70589;BME280;58152;49.202;18.744;2022-11-23T13:48:57;96005.78;;;4.75;72.41
70589;BME280;58152;49.202;18.744;2022-11-23T13:51:28;96004.94;;;4.74;72.11
70589;BME280;58152;49.202;18.744;2022-11-23T13:54:05;96002.47;;;4.71;71.65
70589;BME280;58152;49.202;18.744;2022-11-23T13:56:43;96005.91;;;4.72;71.43
70589;BME280;58152;49.202;18.744;2022-11-23T14:04:38;96015.97;;;4.79;71.51
70589;BME280;58152;49.202;18.744;2022-11-23T14:07:27;96016.09;;;4.76;71.43
70589;BME280;58152;49.202;18.744;2022-11-23T14:09:59;96010.88;;;4.76;71.64
70589;BME280;58152;49.202;18.744;2022-11-23T14:15:15;96034.88;;;4.83;71.41
70589;BME280;58152;49.202;18.744;2022-11-23T14:21:06;96024.69;;;4.78;70.87
70589;BME280;58152;49.202;18.744;2022-11-23T14:23:49;96030.44;;;4.85;71.25
70589;BME280;58152;49.202;18.744;2022-11-23T14:26:51;96020.03;;;4.85;70.83
70589;BME280;58152;49.202;18.744;2022-11-23T14:29:31;96028.75;;;4.84;70.64
70589;BME280;58152;49.202;18.744;2022-11-23T14:32:02;96027.06;;;4.83;70.36
70589;BME280;58152;49.202;18.744;2022-11-23T14:40:11;96023.47;;;4.85;69.72
70589;BME280;58152;49.202;18.744;2022-11-23T14:42:50;96031.56;;;4.79;69.94
70589;BME280;58152;49.202;18.744;2022-11-23T14:45:18;96035.78;;;4.82;69.99
70589;BME280;58152;49.202;18.744;2022-11-23T14:47:45;96037.56;;;4.81;69.63
70589;BME280;58152;49.202;18.744;2022-11-23T14:50:26;96035.91;;;4.79;68.33
70589;BME280;58152;49.202;18.744;2022-11-23T14:52:56;96047.03;;;4.82;68.89
70589;BME280;58152;49.202;18.744;2022-11-23T14:55:27;96048.78;;;4.82;69.39
70589;BME280;58152;49.202;18.744;2022-11-23T14:58:01;96047.75;;;4.86;69.35
70589;BME280;58152;49.202;18.744;2022-11-23T15:00:36;96052.66;;;4.92;68.96
70589;BME280;58152;49.202;18.744;2022-11-23T15:03:08;96057.03;;;4.92;69.25
70589;BME280;58152;49.202;18.744;2022-11-23T15:05:51;96063.06;;;4.92;69.13
70589;BME280;58152;49.202;18.744;2022-11-23T15:08:24;96065.84;;;4.88;68.72
70589;BME280;58152;49.202;18.744;2022-11-23T15:11:11;96069.41;;;4.85;68.66
70589;BME280;58152;49.202;18.744;2022-11-23T15:13:49;96054.94;;;4.79;68.67
70589;BME280;58152;49.202;18.744;2022-11-23T15:16:18;96060.13;;;4.79;68.81
70589;BME280;58152;49.202;18.744;2022-11-23T15:18:44;96068.84;;;4.78;68.44
70589;BME280;58152;49.202;18.744;2022-11-23T15:21:30;96066.34;;;4.77;68.88